sensor_id;sensor_type;location;lat;lon;timestamp;P1;durP1;ratioP1;P2;durP2;ratioP2
25069;SDS011;13064;48.162;11.536;2023-07-13T00:01:14;5.47;;;3.25;;
25069;SDS011;13064;48.162;11.536;2023-07-13T00:03:42;5.85;;;3.50;;
25069;SDS011;13064;48.162;11.536;2023-07-13T00:06:10;5.40;;;3.38;;
25069;SDS011;13064;48.162;11.536;2023-07-13T00:08:39;5.78;;;3.35;;
25069;SDS011;13064;48.162;11.536;2023-07-13T00:11:06;4.95;;;3.28;;
25069;SDS011;13064;48.162;11.536;2023-07-13T00:13:34;4.47;;;3.17;;
25069;SDS011;13064;48.162;11.536;2023-07-13T00:16:04;7.13;;;3.63;;
25069;SDS011;13064;48.162;11.536;2023-07-13T00:18:32;4.90;;;3.47;;
25069;SDS011;13064;48.162;11.536;2023-07-13T00:21:00;4.80;;;3.28;;
25069;SDS011;13064;48.162;11.536;2023-07-13T00:23:35;5.38;;;3.67;;
25069;SDS011;13064;48.162;11.536;2023-07-13T00:26:04;5.18;;;3.40;;
25069;SDS011;13064;48.162;11.536;2023-07-13T00:28:31;4.05;;;3.40;;
25069;SDS011;13064;48.162;11.536;2023-07-13T00:30:59;5.22;;;3.20;;
25069;SDS011;13064;48.162;11.536;2023-07-13T00:33:28;5.43;;;3.03;;
25069;SDS011;13064;48.162;11.536;2023-07-13T00:35:56;4.72;;;3.05;;
25069;SDS011;13064;48.162;11.536;2023-07-13T00:38:26;3.47;;;2.72;;
25069;SDS011;13064;48.162;11.536;2023-07-13T00:40:53;4.55;;;3.00;;
25069;SDS011;13064;48.162;11.536;2023-07-13T00:43:22;4.07;;;2.42;;
25069;SDS011;13064;48.162;11.536;2023-07-13T00:48:21;3.40;;;2.75;;
25069;SDS011;13064;48.162;11.536;2023-07-13T00:50:51;6.70;;;2.80;;
25069;SDS011;13064;48.162;11.536;2023-07-13T00:53:20;3.47;;;2.97;;
25069;SDS011;13064;48.162;11.536;2023-07-13T00:55:48;6.20;;;2.70;;
25069;SDS011;13064;48.162;11.536;2023-07-13T00:58:17;4.38;;;2.88;;
25069;SDS011;13064;48.162;11.536;2023-07-13T01:00:45;5.57;;;2.95;;
25069;SDS011;13064;48.162;11.536;2023-07-13T01:03:14;3.13;;;2.50;;
25069;SDS011;13064;48.162;11.536;2023-07-13T01:05:42;5.07;;;2.92;;
25069;SDS011;13064;48.162;11.536;2023-07-13T01:08:10;6.45;;;2.65;;
25069;SDS011;13064;48.162;11.536;2023-07-13T01:10:37;3.53;;;2.67;;
25069;SDS011;13064;48.162;11.536;2023-07-13T01:13:06;3.85;;;2.50;;
25069;SDS011;13064;48.162;11.536;2023-07-13T01:15:39;3.10;;;2.60;;
25069;SDS011;13064;48.162;11.536;2023-07-13T01:18:09;3.28;;;2.50;;
25069;SDS011;13064;48.162;11.536;2023-07-13T01:20:37;3.15;;;2.63;;
25069;SDS011;13064;48.162;11.536;2023-07-13T01:23:06;4.43;;;2.80;;
25069;SDS011;13064;48.162;11.536;2023-07-13T01:25:35;4.53;;;2.88;;
25069;SDS011;13064;48.162;11.536;2023-07-13T01:28:03;3.25;;;2.70;;
25069;SDS011;13064;48.162;11.536;2023-07-13T01:30:31;4.32;;;2.65;;
25069;SDS011;13064;48.162;11.536;2023-07-13T01:33:00;5.80;;;2.85;;
25069;SDS011;13064;48.162;11.536;2023-07-13T01:35:28;3.33;;;2.65;;
25069;SDS011;13064;48.162;11.536;2023-07-13T01:37:56;3.30;;;2.83;;
25069;SDS011;13064;48.162;11.536;2023-07-13T01:40:23;5.32;;;2.60;;
25069;SDS011;13064;48.162;11.536;2023-07-13T01:42:51;3.90;;;2.88;;
25069;SDS011;13064;48.162;11.536;2023-07-13T01:45:20;3.72;;;2.63;;
25069;SDS011;13064;48.162;11.536;2023-07-13T01:47:47;3.60;;;2.72;;
25069;SDS011;13064;48.162;11.536;2023-07-13T01:50:15;3.03;;;2.72;;
25069;SDS011;13064;48.162;11.536;2023-07-13T01:52:43;4.03;;;2.58;;
25069;SDS011;13064;48.162;11.536;2023-07-13T01:55:10;4.03;;;3.13;;
25069;SDS011;13064;48.162;11.536;2023-07-13T01:57:39;4.28;;;3.08;;
25069;SDS011;13064;48.162;11.536;2023-07-13T02:00:08;5.63;;;3.30;;
25069;SDS011;13064;48.162;11.536;2023-07-13T02:02:43;6.38;;;3.45;;
25069;SDS011;13064;48.162;11.536;2023-07-13T02:05:12;5.20;;;3.47;;
25069;SDS011;13064;48.162;11.536;2023-07-13T02:07:40;4.47;;;3.20;;
25069;SDS011;13064;48.162;11.536;2023-07-13T02:10:09;4.68;;;3.28;;
25069;SDS011;13064;48.162;11.536;2023-07-13T02:12:37;4.72;;;3.38;;
25069;SDS011;13064;48.162;11.536;2023-07-13T02:15:05;5.53;;;3.17;;
25069;SDS011;13064;48.162;11.536;2023-07-13T02:17:33;5.30;;;2.92;;
25069;SDS011;13064;48.162;11.536;2023-07-13T02:20:01;4.55;;;3.30;;
25069;SDS011;13064;48.162;11.536;2023-07-13T02:22:29;3.92;;;3.53;;
25069;SDS011;13064;48.162;11.536;2023-07-13T02:24:57;6.32;;;3.00;;
25069;SDS011;13064;48.162;11.536;2023-07-13T02:27:25;5.53;;;3.13;;
25069;SDS011;13064;48.162;11.536;2023-07-13T02:29:53;7.20;;;3.60;;
25069;SDS011;13064;48.162;11.536;2023-07-13T02:32:21;4.47;;;3.28;;
25069;SDS011;13064;48.162;11.536;2023-07-13T02:34:52;5.95;;;3.45;;
25069;SDS011;13064;48.162;11.536;2023-07-13T02:37:20;7.32;;;3.45;;
25069;SDS011;13064;48.162;11.536;2023-07-13T02:39:48;8.23;;;3.63;;
25069;SDS011;13064;48.162;11.536;2023-07-13T02:42:15;5.88;;;3.30;;
25069;SDS011;13064;48.162;11.536;2023-07-13T02:44:43;9.70;;;4.07;;
25069;SDS011;13064;48.162;11.536;2023-07-13T02:47:11;9.25;;;4.47;;
25069;SDS011;13064;48.162;11.536;2023-07-13T02:49:39;10.10;;;4.95;;
25069;SDS011;13064;48.162;11.536;2023-07-13T02:52:07;12.90;;;5.10;;
25069;SDS011;13064;48.162;11.536;2023-07-13T02:54:34;11.75;;;4.75;;
25069;SDS011;13064;48.162;11.536;2023-07-13T02:57:02;10.07;;;4.80;;
25069;SDS011;13064;48.162;11.536;2023-07-13T02:59:31;13.43;;;5.22;;
25069;SDS011;13064;48.162;11.536;2023-07-13T03:01:58;9.93;;;5.32;;
25069;SDS011;13064;48.162;11.536;2023-07-13T03:04:28;11.70;;;6.00;;
25069;SDS011;13064;48.162;11.536;2023-07-13T03:06:55;8.50;;;5.72;;
25069;SDS011;13064;48.162;11.536;2023-07-13T03:09:33;8.45;;;5.88;;
25069;SDS011;13064;48.162;11.536;2023-07-13T03:12:03;11.40;;;6.07;;
25069;SDS011;13064;48.162;11.536;2023-07-13T03:14:32;12.88;;;6.53;;
25069;SDS011;13064;48.162;11.536;2023-07-13T03:17:01;10.75;;;5.85;;
25069;SDS011;13064;48.162;11.536;2023-07-13T03:19:31;11.57;;;6.85;;
25069;SDS011;13064;48.162;11.536;2023-07-13T03:22:00;10.85;;;5.25;;
25069;SDS011;13064;48.162;11.536;2023-07-13T03:24:29;13.55;;;6.13;;
25069;SDS011;13064;48.162;11.536;2023-07-13T03:26:57;10.57;;;6.20;;
25069;SDS011;13064;48.162;11.536;2023-07-13T03:29:25;9.25;;;5.65;;
25069;SDS011;13064;48.162;11.536;2023-07-13T03:31:52;10.98;;;5.97;;
25069;SDS011;13064;48.162;11.536;2023-07-13T03:34:22;9.10;;;5.38;;
25069;SDS011;13064;48.162;11.536;2023-07-13T03:36:49;7.57;;;5.57;;
25069;SDS011;13064;48.162;11.536;2023-07-13T03:39:18;10.43;;;5.68;;
25069;SDS011;13064;48.162;11.536;2023-07-13T03:41:48;11.23;;;5.38;;
25069;SDS011;13064;48.162;11.536;2023-07-13T03:44:16;10.85;;;5.75;;
25069;SDS011;13064;48.162;11.536;2023-07-13T03:46:46;8.07;;;5.38;;
25069;SDS011;13064;48.162;11.536;2023-07-13T03:49:14;7.53;;;5.50;;
25069;SDS011;13064;48.162;11.536;2023-07-13T03:51:42;9.13;;;5.32;;
25069;SDS011;13064;48.162;11.536;2023-07-13T03:54:10;8.45;;;5.15;;
25069;SDS011;13064;48.162;11.536;2023-07-13T03:56:37;8.60;;;4.93;;
25069;SDS011;13064;48.162;11.536;2023-07-13T03:59:07;10.57;;;5.50;;
25069;SDS011;13064;48.162;11.536;2023-07-13T04:01:35;8.88;;;5.10;;
25069;SDS011;13064;48.162;11.536;2023-07-13T04:04:02;9.27;;;4.63;;
25069;SDS011;13064;48.162;11.536;2023-07-13T04:06:31;5.68;;;4.03;;
25069;SDS011;13064;48.162;11.536;2023-07-13T04:08:59;7.40;;;4.78;;
25069;SDS011;13064;48.162;11.536;2023-07-13T04:11:28;8.02;;;4.90;;
25069;SDS011;13064;48.162;11.536;2023-07-13T04:13:58;7.63;;;4.20;;
25069;SDS011;13064;48.162;11.536;2023-07-13T04:16:26;7.30;;;4.25;;
25069;SDS011;13064;48.162;11.536;2023-07-13T04:18:54;6.18;;;4.60;;
25069;SDS011;13064;48.162;11.536;2023-07-13T04:21:26;8.27;;;3.97;;
25069;SDS011;13064;48.162;11.536;2023-07-13T04:23:54;5.47;;;4.03;;
25069;SDS011;13064;48.162;11.536;2023-07-13T04:29:52;7.00;;;4.10;;
25069;SDS011;13064;48.162;11.536;2023-07-13T04:32:20;6.93;;;3.92;;
25069;SDS011;13064;48.162;11.536;2023-07-13T04:38:24;6.35;;;4.72;;
25069;SDS011;13064;48.162;11.536;2023-07-13T04:40:55;6.15;;;4.60;;
25069;SDS011;13064;48.162;11.536;2023-07-13T04:43:24;6.00;;;4.10;;
25069;SDS011;13064;48.162;11.536;2023-07-13T04:45:52;8.55;;;4.70;;
25069;SDS011;13064;48.162;11.536;2023-07-13T04:48:20;11.65;;;6.05;;
25069;SDS011;13064;48.162;11.536;2023-07-13T04:50:53;4.90;;;4.05;;
25069;SDS011;13064;48.162;11.536;2023-07-13T04:53:21;6.90;;;4.15;;
25069;SDS011;13064;48.162;11.536;2023-07-13T04:55:49;5.95;;;3.70;;
25069;SDS011;13064;48.162;11.536;2023-07-13T04:58:16;8.50;;;4.22;;
25069;SDS011;13064;48.162;11.536;2023-07-13T05:00:44;4.85;;;3.58;;
25069;SDS011;13064;48.162;11.536;2023-07-13T05:03:13;6.25;;;3.95;;
25069;SDS011;13064;48.162;11.536;2023-07-13T05:05:41;5.53;;;3.47;;
25069;SDS011;13064;48.162;11.536;2023-07-13T05:08:08;5.20;;;3.97;;
25069;SDS011;13064;48.162;11.536;2023-07-13T05:10:36;7.30;;;4.18;;
25069;SDS011;13064;48.162;11.536;2023-07-13T05:13:03;5.18;;;3.83;;
25069;SDS011;13064;48.162;11.536;2023-07-13T05:15:32;5.15;;;3.42;;
25069;SDS011;13064;48.162;11.536;2023-07-13T05:18:00;5.28;;;3.78;;
25069;SDS011;13064;48.162;11.536;2023-07-13T05:20:28;6.47;;;3.63;;
25069;SDS011;13064;48.162;11.536;2023-07-13T05:22:56;8.95;;;3.88;;
25069;SDS011;13064;48.162;11.536;2023-07-13T05:25:24;7.80;;;3.97;;
25069;SDS011;13064;48.162;11.536;2023-07-13T05:27:52;6.22;;;4.25;;
25069;SDS011;13064;48.162;11.536;2023-07-13T05:30:19;6.85;;;4.32;;
25069;SDS011;13064;48.162;11.536;2023-07-13T05:32:47;5.03;;;3.67;;
25069;SDS011;13064;48.162;11.536;2023-07-13T05:35:15;6.82;;;3.60;;
25069;SDS011;13064;48.162;11.536;2023-07-13T05:37:42;4.05;;;3.63;;
25069;SDS011;13064;48.162;11.536;2023-07-13T05:40:10;8.32;;;3.97;;
25069;SDS011;13064;48.162;11.536;2023-07-13T05:42:38;6.55;;;3.75;;
25069;SDS011;13064;48.162;11.536;2023-07-13T05:49:06;7.38;;;4.00;;
25069;SDS011;13064;48.162;11.536;2023-07-13T06:06:22;5.40;;;3.90;;
25069;SDS011;13064;48.162;11.536;2023-07-13T06:12:44;5.90;;;3.65;;
25069;SDS011;13064;48.162;11.536;2023-07-13T06:19:18;5.28;;;3.92;;
25069;SDS011;13064;48.162;11.536;2023-07-13T06:25:46;6.97;;;4.00;;
25069;SDS011;13064;48.162;11.536;2023-07-13T06:32:14;4.90;;;3.05;;
25069;SDS011;13064;48.162;11.536;2023-07-13T06:38:35;4.97;;;3.50;;
25069;SDS011;13064;48.162;11.536;2023-07-13T06:45:03;7.95;;;3.20;;
25069;SDS011;13064;48.162;11.536;2023-07-13T06:51:31;4.43;;;2.67;;
25069;SDS011;13064;48.162;11.536;2023-07-13T07:01:59;4.18;;;2.90;;
25069;SDS011;13064;48.162;11.536;2023-07-13T07:08:21;6.53;;;3.78;;
25069;SDS011;13064;48.162;11.536;2023-07-13T07:14:43;7.53;;;2.88;;
25069;SDS011;13064;48.162;11.536;2023-07-13T07:21:12;6.38;;;2.97;;
25069;SDS011;13064;48.162;11.536;2023-07-13T07:35:16;4.60;;;2.78;;
25069;SDS011;13064;48.162;11.536;2023-07-13T07:41:44;5.72;;;3.33;;
25069;SDS011;13064;48.162;11.536;2023-07-13T07:48:56;8.55;;;3.20;;
25069;SDS011;13064;48.162;11.536;2023-07-13T07:55:33;6.43;;;3.22;;
25069;SDS011;13064;48.162;11.536;2023-07-13T08:05:53;7.90;;;3.05;;
25069;SDS011;13064;48.162;11.536;2023-07-13T08:13:06;10.82;;;2.90;;
25069;SDS011;13064;48.162;11.536;2023-07-13T08:15:40;8.57;;;2.50;;
25069;SDS011;13064;48.162;11.536;2023-07-13T08:22:08;6.53;;;2.80;;
25069;SDS011;13064;48.162;11.536;2023-07-13T08:28:36;5.85;;;2.80;;
25069;SDS011;13064;48.162;11.536;2023-07-13T08:35:05;7.60;;;3.05;;
25069;SDS011;13064;48.162;11.536;2023-07-13T08:37:33;4.35;;;2.65;;
25069;SDS011;13064;48.162;11.536;2023-07-13T08:43:36;3.42;;;2.20;;
25069;SDS011;13064;48.162;11.536;2023-07-13T08:48:58;3.47;;;2.35;;
25069;SDS011;13064;48.162;11.536;2023-07-13T08:55:22;3.92;;;2.20;;
25069;SDS011;13064;48.162;11.536;2023-07-13T08:57:54;3.00;;;1.80;;
25069;SDS011;13064;48.162;11.536;2023-07-13T09:00:25;5.17;;;1.70;;
25069;SDS011;13064;48.162;11.536;2023-07-13T09:02:59;6.03;;;1.80;;
25069;SDS011;13064;48.162;11.536;2023-07-13T09:05:36;6.43;;;1.83;;
25069;SDS011;13064;48.162;11.536;2023-07-13T09:08:31;4.45;;;1.75;;
25069;SDS011;13064;48.162;11.536;2023-07-13T09:19:32;4.68;;;1.60;;
25069;SDS011;13064;48.162;11.536;2023-07-13T09:26:00;4.90;;;2.20;;
25069;SDS011;13064;48.162;11.536;2023-07-13T09:32:22;6.85;;;2.00;;
25069;SDS011;13064;48.162;11.536;2023-07-13T09:38:59;4.28;;;2.40;;
25069;SDS011;13064;48.162;11.536;2023-07-13T09:53:54;3.75;;;1.88;;
25069;SDS011;13064;48.162;11.536;2023-07-13T10:04:27;4.13;;;1.88;;
25069;SDS011;13064;48.162;11.536;2023-07-13T10:11:00;3.65;;;1.70;;
25069;SDS011;13064;48.162;11.536;2023-07-13T10:17:31;2.70;;;1.40;;
25069;SDS011;13064;48.162;11.536;2023-07-13T10:35:14;3.70;;;1.80;;
25069;SDS011;13064;48.162;11.536;2023-07-13T10:41:43;5.05;;;1.70;;
25069;SDS011;13064;48.162;11.536;2023-07-13T10:48:06;5.53;;;1.48;;
25069;SDS011;13064;48.162;11.536;2023-07-13T11:06:13;3.63;;;1.90;;
25069;SDS011;13064;48.162;11.536;2023-07-13T11:25:39;3.40;;;1.45;;
25069;SDS011;13064;48.162;11.536;2023-07-13T11:32:23;5.60;;;1.70;;
25069;SDS011;13064;48.162;11.536;2023-07-13T11:45:20;6.07;;;1.48;;
25069;SDS011;13064;48.162;11.536;2023-07-13T11:56:13;3.50;;;1.52;;
25069;SDS011;13064;48.162;11.536;2023-07-13T12:06:32;3.15;;;1.67;;
25069;SDS011;13064;48.162;11.536;2023-07-13T12:16:07;2.45;;;1.33;;
25069;SDS011;13064;48.162;11.536;2023-07-13T12:34:08;5.82;;;1.70;;
25069;SDS011;13064;48.162;11.536;2023-07-13T12:40:32;3.72;;;1.60;;
25069;SDS011;13064;48.162;11.536;2023-07-13T12:46:58;3.60;;;1.70;;
25069;SDS011;13064;48.162;11.536;2023-07-13T12:49:28;3.30;;;1.70;;
25069;SDS011;13064;48.162;11.536;2023-07-13T12:51:58;2.67;;;1.63;;
25069;SDS011;13064;48.162;11.536;2023-07-13T12:54:26;3.80;;;1.40;;
25069;SDS011;13064;48.162;11.536;2023-07-13T12:56:54;2.45;;;1.30;;
25069;SDS011;13064;48.162;11.536;2023-07-13T12:59:25;4.07;;;1.70;;
25069;SDS011;13064;48.162;11.536;2023-07-13T13:01:54;4.25;;;1.40;;
25069;SDS011;13064;48.162;11.536;2023-07-13T13:04:25;3.20;;;1.55;;
25069;SDS011;13064;48.162;11.536;2023-07-13T13:07:03;9.02;;;1.63;;
25069;SDS011;13064;48.162;11.536;2023-07-13T13:09:31;3.25;;;1.33;;
25069;SDS011;13064;48.162;11.536;2023-07-13T13:11:59;5.70;;;1.58;;
25069;SDS011;13064;48.162;11.536;2023-07-13T13:14:27;2.13;;;1.65;;
25069;SDS011;13064;48.162;11.536;2023-07-13T13:16:54;4.97;;;1.50;;
25069;SDS011;13064;48.162;11.536;2023-07-13T13:19:26;3.42;;;1.50;;
25069;SDS011;13064;48.162;11.536;2023-07-13T13:21:55;3.65;;;1.55;;
25069;SDS011;13064;48.162;11.536;2023-07-13T13:24:26;3.90;;;1.60;;
25069;SDS011;13064;48.162;11.536;2023-07-13T13:26:54;4.75;;;1.77;;
25069;SDS011;13064;48.162;11.536;2023-07-13T13:29:24;6.50;;;1.75;;
25069;SDS011;13064;48.162;11.536;2023-07-13T13:31:52;4.68;;;1.67;;
25069;SDS011;13064;48.162;11.536;2023-07-13T13:34:21;1.65;;;1.30;;
25069;SDS011;13064;48.162;11.536;2023-07-13T13:36:52;4.18;;;1.55;;
25069;SDS011;13064;48.162;11.536;2023-07-13T13:39:43;3.40;;;1.60;;
25069;SDS011;13064;48.162;11.536;2023-07-13T13:42:28;5.72;;;1.67;;
25069;SDS011;13064;48.162;11.536;2023-07-13T13:44:56;4.75;;;1.67;;
25069;SDS011;13064;48.162;11.536;2023-07-13T13:47:30;4.30;;;1.70;;
25069;SDS011;13064;48.162;11.536;2023-07-13T13:49:59;3.97;;;1.80;;
25069;SDS011;13064;48.162;11.536;2023-07-13T13:52:28;4.72;;;1.83;;
25069;SDS011;13064;48.162;11.536;2023-07-13T13:54:55;4.75;;;1.60;;
25069;SDS011;13064;48.162;11.536;2023-07-13T13:57:23;3.28;;;1.80;;
25069;SDS011;13064;48.162;11.536;2023-07-13T13:59:52;6.03;;;1.52;;
25069;SDS011;13064;48.162;11.536;2023-07-13T14:02:21;5.03;;;1.50;;
25069;SDS011;13064;48.162;11.536;2023-07-13T14:04:54;2.38;;;1.38;;
25069;SDS011;13064;48.162;11.536;2023-07-13T14:07:22;4.43;;;1.95;;
25069;SDS011;13064;48.162;11.536;2023-07-13T14:09:50;3.58;;;1.70;;
25069;SDS011;13064;48.162;11.536;2023-07-13T14:12:17;1.60;;;1.50;;
25069;SDS011;13064;48.162;11.536;2023-07-13T14:14:45;5.07;;;1.40;;
25069;SDS011;13064;48.162;11.536;2023-07-13T14:17:17;4.00;;;1.52;;
25069;SDS011;13064;48.162;11.536;2023-07-13T14:19:48;2.90;;;1.60;;
25069;SDS011;13064;48.162;11.536;2023-07-13T14:25:12;4.22;;;1.95;;
25069;SDS011;13064;48.162;11.536;2023-07-13T14:27:40;3.15;;;1.75;;
25069;SDS011;13064;48.162;11.536;2023-07-13T14:30:14;2.03;;;1.40;;
25069;SDS011;13064;48.162;11.536;2023-07-13T14:32:42;3.97;;;1.42;;
25069;SDS011;13064;48.162;11.536;2023-07-13T14:35:14;4.47;;;1.85;;
25069;SDS011;13064;48.162;11.536;2023-07-13T14:37:42;3.83;;;1.42;;
25069;SDS011;13064;48.162;11.536;2023-07-13T14:40:12;5.00;;;1.60;;
25069;SDS011;13064;48.162;11.536;2023-07-13T14:42:40;2.60;;;1.75;;
25069;SDS011;13064;48.162;11.536;2023-07-13T14:45:14;6.28;;;1.63;;
25069;SDS011;13064;48.162;11.536;2023-07-13T14:47:42;5.15;;;1.90;;
25069;SDS011;13064;48.162;11.536;2023-07-13T14:50:21;2.47;;;1.60;;
25069;SDS011;13064;48.162;11.536;2023-07-13T14:52:48;6.18;;;1.58;;
25069;SDS011;13064;48.162;11.536;2023-07-13T14:55:17;6.38;;;1.90;;
25069;SDS011;13064;48.162;11.536;2023-07-13T14:57:45;5.53;;;1.50;;
25069;SDS011;13064;48.162;11.536;2023-07-13T15:00:14;4.22;;;1.60;;
25069;SDS011;13064;48.162;11.536;2023-07-13T15:02:44;5.25;;;1.77;;
25069;SDS011;13064;48.162;11.536;2023-07-13T15:05:13;2.53;;;1.38;;
25069;SDS011;13064;48.162;11.536;2023-07-13T15:07:41;3.90;;;1.60;;
25069;SDS011;13064;48.162;11.536;2023-07-13T15:10:28;3.55;;;1.75;;
25069;SDS011;13064;48.162;11.536;2023-07-13T15:13:01;6.93;;;1.50;;
25069;SDS011;13064;48.162;11.536;2023-07-13T15:19:02;2.63;;;1.63;;
25069;SDS011;13064;48.162;11.536;2023-07-13T15:21:33;3.85;;;1.45;;
25069;SDS011;13064;48.162;11.536;2023-07-13T15:24:03;3.85;;;1.65;;
25069;SDS011;13064;48.162;11.536;2023-07-13T15:26:35;4.93;;;1.70;;
25069;SDS011;13064;48.162;11.536;2023-07-13T15:29:02;3.72;;;1.63;;
25069;SDS011;13064;48.162;11.536;2023-07-13T15:31:31;6.80;;;1.85;;
25069;SDS011;13064;48.162;11.536;2023-07-13T15:33:59;7.55;;;1.70;;
25069;SDS011;13064;48.162;11.536;2023-07-13T15:36:27;4.35;;;1.70;;
25069;SDS011;13064;48.162;11.536;2023-07-13T15:38:58;2.27;;;1.50;;
25069;SDS011;13064;48.162;11.536;2023-07-13T15:49:26;3.92;;;1.45;;
25069;SDS011;13064;48.162;11.536;2023-07-13T15:59:08;3.90;;;1.83;;
25069;SDS011;13064;48.162;11.536;2023-07-13T16:05:43;4.47;;;1.48;;
25069;SDS011;13064;48.162;11.536;2023-07-13T16:11:11;3.95;;;1.48;;
25069;SDS011;13064;48.162;11.536;2023-07-13T16:20:40;2.45;;;1.45;;
25069;SDS011;13064;48.162;11.536;2023-07-13T16:27:08;3.00;;;1.60;;
25069;SDS011;13064;48.162;11.536;2023-07-13T16:33:36;4.78;;;1.60;;
25069;SDS011;13064;48.162;11.536;2023-07-13T16:43:59;3.63;;;1.60;;
25069;SDS011;13064;48.162;11.536;2023-07-13T16:46:34;3.55;;;1.70;;
25069;SDS011;13064;48.162;11.536;2023-07-13T16:49:02;6.45;;;2.05;;
25069;SDS011;13064;48.162;11.536;2023-07-13T16:59:29;3.40;;;1.70;;
25069;SDS011;13064;48.162;11.536;2023-07-13T17:09:47;4.97;;;2.08;;
25069;SDS011;13064;48.162;11.536;2023-07-13T17:12:17;5.10;;;1.63;;
25069;SDS011;13064;48.162;11.536;2023-07-13T17:14:46;4.15;;;1.83;;
25069;SDS011;13064;48.162;11.536;2023-07-13T17:20:30;4.05;;;1.73;;
25069;SDS011;13064;48.162;11.536;2023-07-13T17:25:51;3.58;;;2.00;;
25069;SDS011;13064;48.162;11.536;2023-07-13T17:28:20;7.07;;;1.60;;
25069;SDS011;13064;48.162;11.536;2023-07-13T17:30:49;3.58;;;1.63;;
25069;SDS011;13064;48.162;11.536;2023-07-13T17:35:48;3.67;;;1.70;;
25069;SDS011;13064;48.162;11.536;2023-07-13T17:38:16;6.75;;;1.80;;
25069;SDS011;13064;48.162;11.536;2023-07-13T17:40:43;3.10;;;1.58;;
25069;SDS011;13064;48.162;11.536;2023-07-13T17:43:11;7.18;;;1.88;;
25069;SDS011;13064;48.162;11.536;2023-07-13T17:45:44;2.70;;;1.63;;
25069;SDS011;13064;48.162;11.536;2023-07-13T17:48:12;4.53;;;1.80;;
25069;SDS011;13064;48.162;11.536;2023-07-13T17:50:40;4.53;;;1.50;;
25069;SDS011;13064;48.162;11.536;2023-07-13T17:53:13;3.10;;;1.60;;
25069;SDS011;13064;48.162;11.536;2023-07-13T17:55:41;3.88;;;1.75;;
25069;SDS011;13064;48.162;11.536;2023-07-13T17:58:09;2.17;;;1.50;;
25069;SDS011;13064;48.162;11.536;2023-07-13T18:00:38;4.25;;;1.60;;
25069;SDS011;13064;48.162;11.536;2023-07-13T18:03:47;5.95;;;2.17;;
25069;SDS011;13064;48.162;11.536;2023-07-13T18:06:11;6.55;;;2.40;;
25069;SDS011;13064;48.162;11.536;2023-07-13T18:08:49;5.88;;;1.80;;
25069;SDS011;13064;48.162;11.536;2023-07-13T18:11:17;1.65;;;1.52;;
25069;SDS011;13064;48.162;11.536;2023-07-13T18:13:47;1.52;;;1.40;;
25069;SDS011;13064;48.162;11.536;2023-07-13T18:16:15;4.25;;;1.67;;
25069;SDS011;13064;48.162;11.536;2023-07-13T18:18:45;3.60;;;1.50;;
25069;SDS011;13064;48.162;11.536;2023-07-13T18:21:14;3.55;;;1.67;;
25069;SDS011;13064;48.162;11.536;2023-07-13T18:23:43;6.43;;;1.70;;
25069;SDS011;13064;48.162;11.536;2023-07-13T18:26:15;2.92;;;1.95;;
25069;SDS011;13064;48.162;11.536;2023-07-13T18:28:42;3.17;;;1.80;;
25069;SDS011;13064;48.162;11.536;2023-07-13T18:31:11;3.22;;;1.98;;
25069;SDS011;13064;48.162;11.536;2023-07-13T18:33:40;6.25;;;3.00;;
25069;SDS011;13064;48.162;11.536;2023-07-13T18:36:10;4.43;;;2.45;;
25069;SDS011;13064;48.162;11.536;2023-07-13T18:38:41;4.05;;;2.08;;
25069;SDS011;13064;48.162;11.536;2023-07-13T18:41:09;5.75;;;2.50;;
25069;SDS011;13064;48.162;11.536;2023-07-13T18:43:37;4.90;;;2.17;;
25069;SDS011;13064;48.162;11.536;2023-07-13T18:46:10;3.35;;;2.20;;
25069;SDS011;13064;48.162;11.536;2023-07-13T18:48:39;2.22;;;1.98;;
25069;SDS011;13064;48.162;11.536;2023-07-13T18:51:07;3.00;;;1.70;;
25069;SDS011;13064;48.162;11.536;2023-07-13T18:53:37;4.97;;;2.15;;
25069;SDS011;13064;48.162;11.536;2023-07-13T18:56:08;6.35;;;2.00;;
25069;SDS011;13064;48.162;11.536;2023-07-13T18:58:39;4.88;;;1.90;;
25069;SDS011;13064;48.162;11.536;2023-07-13T19:03:40;3.65;;;1.90;;
25069;SDS011;13064;48.162;11.536;2023-07-13T19:06:08;5.00;;;1.95;;
25069;SDS011;13064;48.162;11.536;2023-07-13T19:08:38;4.07;;;2.00;;
25069;SDS011;13064;48.162;11.536;2023-07-13T19:11:10;6.68;;;1.98;;
25069;SDS011;13064;48.162;11.536;2023-07-13T19:13:39;4.47;;;1.65;;
25069;SDS011;13064;48.162;11.536;2023-07-13T19:16:11;3.40;;;1.90;;
25069;SDS011;13064;48.162;11.536;2023-07-13T19:18:41;6.65;;;1.98;;
25069;SDS011;13064;48.162;11.536;2023-07-13T19:23:54;3.25;;;1.77;;
25069;SDS011;13064;48.162;11.536;2023-07-13T19:26:23;3.80;;;1.95;;
25069;SDS011;13064;48.162;11.536;2023-07-13T19:28:55;4.32;;;1.85;;
25069;SDS011;13064;48.162;11.536;2023-07-13T19:33:50;4.28;;;1.88;;
25069;SDS011;13064;48.162;11.536;2023-07-13T19:36:19;5.95;;;1.90;;
25069;SDS011;13064;48.162;11.536;2023-07-13T19:38:48;3.55;;;2.10;;
25069;SDS011;13064;48.162;11.536;2023-07-13T19:41:17;4.00;;;1.90;;
25069;SDS011;13064;48.162;11.536;2023-07-13T19:43:47;4.22;;;2.20;;
25069;SDS011;13064;48.162;11.536;2023-07-13T19:46:34;4.50;;;2.00;;
25069;SDS011;13064;48.162;11.536;2023-07-13T19:49:04;3.63;;;2.05;;
25069;SDS011;13064;48.162;11.536;2023-07-13T19:51:33;5.00;;;2.15;;
25069;SDS011;13064;48.162;11.536;2023-07-13T19:54:02;3.78;;;2.10;;
25069;SDS011;13064;48.162;11.536;2023-07-13T19:56:30;5.22;;;2.35;;
25069;SDS011;13064;48.162;11.536;2023-07-13T19:58:57;4.38;;;2.00;;
25069;SDS011;13064;48.162;11.536;2023-07-13T20:01:25;5.32;;;2.00;;
25069;SDS011;13064;48.162;11.536;2023-07-13T20:03:53;3.20;;;2.08;;
25069;SDS011;13064;48.162;11.536;2023-07-13T20:06:28;7.97;;;2.25;;
25069;SDS011;13064;48.162;11.536;2023-07-13T20:08:59;4.60;;;2.13;;
25069;SDS011;13064;48.162;11.536;2023-07-13T20:11:27;5.85;;;2.17;;
25069;SDS011;13064;48.162;11.536;2023-07-13T20:13:56;3.75;;;1.90;;
25069;SDS011;13064;48.162;11.536;2023-07-13T20:16:24;5.65;;;2.05;;
25069;SDS011;13064;48.162;11.536;2023-07-13T20:18:52;4.68;;;2.15;;
25069;SDS011;13064;48.162;11.536;2023-07-13T20:21:20;3.35;;;1.98;;
25069;SDS011;13064;48.162;11.536;2023-07-13T20:23:47;4.32;;;1.90;;
25069;SDS011;13064;48.162;11.536;2023-07-13T20:26:15;4.25;;;2.03;;
25069;SDS011;13064;48.162;11.536;2023-07-13T20:28:46;4.38;;;2.45;;
25069;SDS011;13064;48.162;11.536;2023-07-13T20:31:14;4.30;;;1.88;;
25069;SDS011;13064;48.162;11.536;2023-07-13T20:33:42;5.47;;;2.17;;
25069;SDS011;13064;48.162;11.536;2023-07-13T20:36:10;5.38;;;2.20;;
25069;SDS011;13064;48.162;11.536;2023-07-13T20:38:39;3.42;;;2.25;;
25069;SDS011;13064;48.162;11.536;2023-07-13T20:41:09;3.78;;;2.20;;
25069;SDS011;13064;48.162;11.536;2023-07-13T20:43:38;5.00;;;2.40;;
25069;SDS011;13064;48.162;11.536;2023-07-13T20:46:08;5.28;;;2.65;;
25069;SDS011;13064;48.162;11.536;2023-07-13T20:48:45;5.00;;;2.40;;
25069;SDS011;13064;48.162;11.536;2023-07-13T20:51:17;2.97;;;2.03;;
25069;SDS011;13064;48.162;11.536;2023-07-13T20:53:45;4.38;;;2.08;;
25069;SDS011;13064;48.162;11.536;2023-07-13T20:58:41;3.55;;;2.20;;
25069;SDS011;13064;48.162;11.536;2023-07-13T21:01:26;2.38;;;2.10;;
25069;SDS011;13064;48.162;11.536;2023-07-13T21:03:55;2.58;;;2.15;;
25069;SDS011;13064;48.162;11.536;2023-07-13T21:06:23;5.75;;;2.53;;
25069;SDS011;13064;48.162;11.536;2023-07-13T21:08:51;4.65;;;2.63;;
25069;SDS011;13064;48.162;11.536;2023-07-13T21:11:18;3.72;;;2.10;;
25069;SDS011;13064;48.162;11.536;2023-07-13T21:13:46;2.58;;;2.25;;